Terminal Aerodrome Forecast
Issued by NWS

Home | Current Version | Previous Version | Text Only | Print | Product List | Glossary On
Versions: 1 2 3 4 5 6 7 8 9 10 11 12 13 14 15 16 17
000
FTUS41 KPBZ 232320
TAFBVI
TAF
KBVI 232320Z 2400/2424 05010G18KT 3SM -SN BR OVC010
      TEMPO 2400/2403 2SM -SN OVC006
     FM240300 01010KT 6SM -SN OVC010
     FM240800 VRB05KT P6SM OVC008
     FM241200 31008KT P6SM OVC015
      AMD NOT SKED 2402/2412=

USA.gov is the U.S. government's official web portal to all federal, state and local government web resources and services.